sensor_id;sensor_type;location;lat;lon;timestamp;P1;durP1;ratioP1;P2;durP2;ratioP2
31798;SDS011;18374;51.136;3.502;2023-12-14T00:01:33;23.45;;;9.25;;
31798;SDS011;18374;51.136;3.502;2023-12-14T00:04:02;29.80;;;9.43;;
31798;SDS011;18374;51.136;3.502;2023-12-14T00:06:31;28.05;;;9.80;;
31798;SDS011;18374;51.136;3.502;2023-12-14T00:08:59;23.27;;;9.43;;
31798;SDS011;18374;51.136;3.502;2023-12-14T00:11:27;32.90;;;10.30;;
31798;SDS011;18374;51.136;3.502;2023-12-14T00:13:55;33.70;;;9.88;;
31798;SDS011;18374;51.136;3.502;2023-12-14T00:16:24;20.04;;;9.14;;
31798;SDS011;18374;51.136;3.502;2023-12-14T00:18:51;22.05;;;9.55;;
31798;SDS011;18374;51.136;3.502;2023-12-14T00:21:20;17.63;;;8.85;;
31798;SDS011;18374;51.136;3.502;2023-12-14T00:23:48;19.23;;;8.52;;
31798;SDS011;18374;51.136;3.502;2023-12-14T00:26:16;23.75;;;8.13;;
31798;SDS011;18374;51.136;3.502;2023-12-14T00:28:44;22.73;;;9.52;;
31798;SDS011;18374;51.136;3.502;2023-12-14T00:31:12;18.80;;;7.22;;
31798;SDS011;18374;51.136;3.502;2023-12-14T00:33:40;15.98;;;7.22;;
31798;SDS011;18374;51.136;3.502;2023-12-14T00:36:08;17.27;;;7.50;;
31798;SDS011;18374;51.136;3.502;2023-12-14T00:38:36;16.25;;;7.45;;
31798;SDS011;18374;51.136;3.502;2023-12-14T00:41:06;15.50;;;7.43;;
31798;SDS011;18374;51.136;3.502;2023-12-14T00:43:34;17.48;;;7.55;;
31798;SDS011;18374;51.136;3.502;2023-12-14T00:46:03;23.45;;;7.10;;
31798;SDS011;18374;51.136;3.502;2023-12-14T00:48:31;12.68;;;5.65;;
31798;SDS011;18374;51.136;3.502;2023-12-14T00:50:59;8.23;;;4.07;;
31798;SDS011;18374;51.136;3.502;2023-12-14T00:53:27;16.60;;;6.85;;
31798;SDS011;18374;51.136;3.502;2023-12-14T00:55:54;16.88;;;6.20;;
31798;SDS011;18374;51.136;3.502;2023-12-14T00:58:22;13.77;;;4.93;;
31798;SDS011;18374;51.136;3.502;2023-12-14T01:00:50;16.05;;;6.22;;
31798;SDS011;18374;51.136;3.502;2023-12-14T01:03:21;23.30;;;7.28;;
31798;SDS011;18374;51.136;3.502;2023-12-14T01:05:49;11.13;;;6.13;;
31798;SDS011;18374;51.136;3.502;2023-12-14T01:08:17;16.25;;;5.97;;
31798;SDS011;18374;51.136;3.502;2023-12-14T01:10:45;12.05;;;5.80;;
31798;SDS011;18374;51.136;3.502;2023-12-14T01:13:13;9.48;;;4.78;;
31798;SDS011;18374;51.136;3.502;2023-12-14T01:15:41;13.50;;;5.25;;
31798;SDS011;18374;51.136;3.502;2023-12-14T01:18:09;19.20;;;5.28;;
31798;SDS011;18374;51.136;3.502;2023-12-14T01:20:38;10.80;;;5.13;;
31798;SDS011;18374;51.136;3.502;2023-12-14T01:23:06;11.57;;;6.20;;
31798;SDS011;18374;51.136;3.502;2023-12-14T01:25:36;11.07;;;5.10;;
31798;SDS011;18374;51.136;3.502;2023-12-14T01:28:04;11.52;;;5.97;;
31798;SDS011;18374;51.136;3.502;2023-12-14T01:30:32;14.70;;;5.72;;
31798;SDS011;18374;51.136;3.502;2023-12-14T01:33:00;12.13;;;4.85;;
31798;SDS011;18374;51.136;3.502;2023-12-14T01:35:28;15.55;;;4.47;;
31798;SDS011;18374;51.136;3.502;2023-12-14T01:37:56;9.90;;;5.25;;
31798;SDS011;18374;51.136;3.502;2023-12-14T01:40:24;11.98;;;4.53;;
31798;SDS011;18374;51.136;3.502;2023-12-14T01:42:52;18.50;;;5.43;;
31798;SDS011;18374;51.136;3.502;2023-12-14T01:45:20;15.88;;;5.28;;
31798;SDS011;18374;51.136;3.502;2023-12-14T01:47:48;7.40;;;4.30;;
31798;SDS011;18374;51.136;3.502;2023-12-14T01:50:16;14.15;;;4.22;;
31798;SDS011;18374;51.136;3.502;2023-12-14T01:52:44;9.63;;;5.10;;
31798;SDS011;18374;51.136;3.502;2023-12-14T01:55:12;11.10;;;4.38;;
31798;SDS011;18374;51.136;3.502;2023-12-14T01:57:40;9.70;;;4.40;;
31798;SDS011;18374;51.136;3.502;2023-12-14T02:00:10;9.45;;;4.72;;
31798;SDS011;18374;51.136;3.502;2023-12-14T02:02:49;6.93;;;3.80;;
31798;SDS011;18374;51.136;3.502;2023-12-14T02:05:18;13.55;;;3.88;;
31798;SDS011;18374;51.136;3.502;2023-12-14T02:07:46;5.72;;;3.25;;
31798;SDS011;18374;51.136;3.502;2023-12-14T02:10:14;6.18;;;3.25;;
31798;SDS011;18374;51.136;3.502;2023-12-14T02:12:42;9.40;;;3.92;;
31798;SDS011;18374;51.136;3.502;2023-12-14T02:15:10;6.90;;;3.10;;
31798;SDS011;18374;51.136;3.502;2023-12-14T02:17:38;8.27;;;3.58;;
31798;SDS011;18374;51.136;3.502;2023-12-14T02:20:06;5.00;;;2.50;;
31798;SDS011;18374;51.136;3.502;2023-12-14T02:22:36;9.98;;;3.13;;
31798;SDS011;18374;51.136;3.502;2023-12-14T02:25:17;8.52;;;3.17;;
31798;SDS011;18374;51.136;3.502;2023-12-14T02:27:45;8.18;;;2.67;;
31798;SDS011;18374;51.136;3.502;2023-12-14T02:30:14;5.10;;;3.70;;
31798;SDS011;18374;51.136;3.502;2023-12-14T02:32:43;4.60;;;2.50;;
31798;SDS011;18374;51.136;3.502;2023-12-14T02:35:10;3.70;;;2.17;;
31798;SDS011;18374;51.136;3.502;2023-12-14T02:37:39;5.43;;;2.33;;
31798;SDS011;18374;51.136;3.502;2023-12-14T02:40:10;4.38;;;2.33;;
31798;SDS011;18374;51.136;3.502;2023-12-14T02:42:38;6.00;;;2.58;;
31798;SDS011;18374;51.136;3.502;2023-12-14T02:45:09;3.55;;;1.77;;
31798;SDS011;18374;51.136;3.502;2023-12-14T02:47:37;7.80;;;2.08;;
31798;SDS011;18374;51.136;3.502;2023-12-14T02:50:05;4.47;;;2.17;;
31798;SDS011;18374;51.136;3.502;2023-12-14T02:52:34;5.95;;;3.00;;
31798;SDS011;18374;51.136;3.502;2023-12-14T02:55:03;2.65;;;1.50;;
31798;SDS011;18374;51.136;3.502;2023-12-14T02:57:31;4.40;;;1.67;;
31798;SDS011;18374;51.136;3.502;2023-12-14T02:59:59;3.13;;;1.63;;
31798;SDS011;18374;51.136;3.502;2023-12-14T03:02:27;3.10;;;1.58;;
31798;SDS011;18374;51.136;3.502;2023-12-14T03:04:55;8.65;;;2.03;;
31798;SDS011;18374;51.136;3.502;2023-12-14T03:07:23;7.18;;;1.65;;
31798;SDS011;18374;51.136;3.502;2023-12-14T03:09:51;3.97;;;1.83;;
31798;SDS011;18374;51.136;3.502;2023-12-14T03:12:19;3.15;;;1.73;;
31798;SDS011;18374;51.136;3.502;2023-12-14T03:14:47;7.65;;;1.70;;
31798;SDS011;18374;51.136;3.502;2023-12-14T03:17:15;2.00;;;1.40;;
31798;SDS011;18374;51.136;3.502;2023-12-14T03:19:44;8.45;;;1.35;;
31798;SDS011;18374;51.136;3.502;2023-12-14T03:22:12;8.50;;;1.83;;
31798;SDS011;18374;51.136;3.502;2023-12-14T03:24:40;6.60;;;1.95;;
31798;SDS011;18374;51.136;3.502;2023-12-14T03:27:08;7.40;;;1.50;;
31798;SDS011;18374;51.136;3.502;2023-12-14T03:29:36;3.55;;;1.50;;
31798;SDS011;18374;51.136;3.502;2023-12-14T03:32:04;2.97;;;1.70;;
31798;SDS011;18374;51.136;3.502;2023-12-14T03:34:32;5.88;;;1.30;;
31798;SDS011;18374;51.136;3.502;2023-12-14T03:37:00;1.98;;;1.23;;
31798;SDS011;18374;51.136;3.502;2023-12-14T03:39:28;3.38;;;1.70;;
31798;SDS011;18374;51.136;3.502;2023-12-14T03:41:56;4.50;;;1.92;;
31798;SDS011;18374;51.136;3.502;2023-12-14T03:44:24;6.43;;;2.38;;
31798;SDS011;18374;51.136;3.502;2023-12-14T03:46:52;2.30;;;1.58;;
31798;SDS011;18374;51.136;3.502;2023-12-14T03:49:21;5.28;;;1.33;;
31798;SDS011;18374;51.136;3.502;2023-12-14T03:51:49;2.78;;;2.03;;
31798;SDS011;18374;51.136;3.502;2023-12-14T03:54:17;4.30;;;2.28;;
31798;SDS011;18374;51.136;3.502;2023-12-14T03:56:45;5.18;;;1.75;;
31798;SDS011;18374;51.136;3.502;2023-12-14T03:59:13;11.50;;;2.10;;
31798;SDS011;18374;51.136;3.502;2023-12-14T04:01:41;2.03;;;1.02;;
31798;SDS011;18374;51.136;3.502;2023-12-14T04:04:09;6.75;;;1.85;;
31798;SDS011;18374;51.136;3.502;2023-12-14T04:06:37;3.58;;;1.52;;
31798;SDS011;18374;51.136;3.502;2023-12-14T04:09:05;8.43;;;1.67;;
31798;SDS011;18374;51.136;3.502;2023-12-14T04:11:33;4.10;;;1.48;;
31798;SDS011;18374;51.136;3.502;2023-12-14T04:14:01;3.42;;;1.77;;
31798;SDS011;18374;51.136;3.502;2023-12-14T04:16:29;6.43;;;2.40;;
31798;SDS011;18374;51.136;3.502;2023-12-14T04:18:56;7.18;;;1.95;;
31798;SDS011;18374;51.136;3.502;2023-12-14T04:21:25;4.07;;;2.08;;
31798;SDS011;18374;51.136;3.502;2023-12-14T04:23:52;1.88;;;1.25;;
31798;SDS011;18374;51.136;3.502;2023-12-14T04:26:20;3.95;;;2.28;;
31798;SDS011;18374;51.136;3.502;2023-12-14T04:28:48;15.40;;;1.88;;
31798;SDS011;18374;51.136;3.502;2023-12-14T04:31:17;3.75;;;1.90;;
31798;SDS011;18374;51.136;3.502;2023-12-14T04:33:45;3.20;;;1.35;;
31798;SDS011;18374;51.136;3.502;2023-12-14T04:36:13;12.77;;;2.25;;
31798;SDS011;18374;51.136;3.502;2023-12-14T04:38:41;4.35;;;1.38;;
31798;SDS011;18374;51.136;3.502;2023-12-14T04:41:13;2.75;;;1.67;;
31798;SDS011;18374;51.136;3.502;2023-12-14T04:43:41;3.58;;;1.92;;
31798;SDS011;18374;51.136;3.502;2023-12-14T04:46:09;3.85;;;2.05;;
31798;SDS011;18374;51.136;3.502;2023-12-14T04:48:37;2.85;;;1.63;;
31798;SDS011;18374;51.136;3.502;2023-12-14T04:51:05;9.20;;;2.10;;
31798;SDS011;18374;51.136;3.502;2023-12-14T04:53:35;3.53;;;1.40;;
31798;SDS011;18374;51.136;3.502;2023-12-14T04:56:03;5.68;;;2.05;;
31798;SDS011;18374;51.136;3.502;2023-12-14T04:58:31;4.30;;;1.73;;
31798;SDS011;18374;51.136;3.502;2023-12-14T05:00:59;17.25;;;2.72;;
31798;SDS011;18374;51.136;3.502;2023-12-14T05:03:27;4.53;;;2.42;;
31798;SDS011;18374;51.136;3.502;2023-12-14T05:05:55;3.53;;;2.47;;
31798;SDS011;18374;51.136;3.502;2023-12-14T05:08:23;4.35;;;1.85;;
31798;SDS011;18374;51.136;3.502;2023-12-14T05:10:51;3.08;;;1.98;;
31798;SDS011;18374;51.136;3.502;2023-12-14T05:13:19;9.50;;;2.80;;
31798;SDS011;18374;51.136;3.502;2023-12-14T05:15:47;7.15;;;3.08;;
31798;SDS011;18374;51.136;3.502;2023-12-14T05:18:15;5.57;;;2.42;;
31798;SDS011;18374;51.136;3.502;2023-12-14T05:20:43;3.78;;;2.28;;
31798;SDS011;18374;51.136;3.502;2023-12-14T05:23:12;6.88;;;3.22;;
31798;SDS011;18374;51.136;3.502;2023-12-14T05:25:41;8.68;;;2.72;;
31798;SDS011;18374;51.136;3.502;2023-12-14T05:28:09;3.38;;;2.55;;
31798;SDS011;18374;51.136;3.502;2023-12-14T05:30:37;5.07;;;2.78;;
31798;SDS011;18374;51.136;3.502;2023-12-14T05:33:05;5.05;;;2.13;;
31798;SDS011;18374;51.136;3.502;2023-12-14T05:35:35;4.43;;;2.42;;
31798;SDS011;18374;51.136;3.502;2023-12-14T05:38:03;7.70;;;2.38;;
31798;SDS011;18374;51.136;3.502;2023-12-14T05:40:31;4.47;;;2.13;;
31798;SDS011;18374;51.136;3.502;2023-12-14T05:43:00;5.28;;;1.98;;
31798;SDS011;18374;51.136;3.502;2023-12-14T05:45:28;4.28;;;2.63;;
31798;SDS011;18374;51.136;3.502;2023-12-14T05:47:57;7.05;;;2.50;;
31798;SDS011;18374;51.136;3.502;2023-12-14T05:50:25;5.90;;;2.00;;
31798;SDS011;18374;51.136;3.502;2023-12-14T05:52:53;9.35;;;2.60;;
31798;SDS011;18374;51.136;3.502;2023-12-14T05:55:21;4.88;;;2.05;;
31798;SDS011;18374;51.136;3.502;2023-12-14T05:57:50;4.80;;;2.05;;
31798;SDS011;18374;51.136;3.502;2023-12-14T06:00:18;2.67;;;1.75;;
31798;SDS011;18374;51.136;3.502;2023-12-14T06:02:46;12.50;;;2.67;;
31798;SDS011;18374;51.136;3.502;2023-12-14T06:05:14;3.80;;;1.80;;
31798;SDS011;18374;51.136;3.502;2023-12-14T06:07:42;6.47;;;2.47;;
31798;SDS011;18374;51.136;3.502;2023-12-14T06:10:10;3.00;;;2.03;;
31798;SDS011;18374;51.136;3.502;2023-12-14T06:12:39;7.00;;;2.30;;
31798;SDS011;18374;51.136;3.502;2023-12-14T06:15:07;3.00;;;2.70;;
31798;SDS011;18374;51.136;3.502;2023-12-14T06:17:35;3.90;;;1.85;;
31798;SDS011;18374;51.136;3.502;2023-12-14T06:20:06;2.90;;;1.70;;
31798;SDS011;18374;51.136;3.502;2023-12-14T06:22:37;4.65;;;1.98;;
31798;SDS011;18374;51.136;3.502;2023-12-14T06:25:06;5.93;;;2.42;;
31798;SDS011;18374;51.136;3.502;2023-12-14T06:27:34;7.90;;;2.30;;
31798;SDS011;18374;51.136;3.502;2023-12-14T06:30:02;6.93;;;2.00;;
31798;SDS011;18374;51.136;3.502;2023-12-14T06:32:30;2.38;;;1.73;;
31798;SDS011;18374;51.136;3.502;2023-12-14T06:34:58;6.95;;;1.92;;
31798;SDS011;18374;51.136;3.502;2023-12-14T06:37:26;9.73;;;1.60;;
31798;SDS011;18374;51.136;3.502;2023-12-14T06:39:55;10.80;;;1.83;;
31798;SDS011;18374;51.136;3.502;2023-12-14T06:42:22;3.63;;;1.85;;
31798;SDS011;18374;51.136;3.502;2023-12-14T06:44:50;6.93;;;1.95;;
31798;SDS011;18374;51.136;3.502;2023-12-14T06:47:18;3.25;;;1.67;;
31798;SDS011;18374;51.136;3.502;2023-12-14T06:49:47;2.33;;;1.67;;
31798;SDS011;18374;51.136;3.502;2023-12-14T06:52:15;3.08;;;1.80;;
31798;SDS011;18374;51.136;3.502;2023-12-14T06:54:43;3.17;;;1.38;;
31798;SDS011;18374;51.136;3.502;2023-12-14T06:57:11;7.57;;;2.40;;
31798;SDS011;18374;51.136;3.502;2023-12-14T06:59:39;3.85;;;1.58;;
31798;SDS011;18374;51.136;3.502;2023-12-14T07:02:07;4.95;;;1.50;;
31798;SDS011;18374;51.136;3.502;2023-12-14T07:04:35;3.80;;;1.90;;
31798;SDS011;18374;51.136;3.502;2023-12-14T07:07:03;3.00;;;1.75;;
31798;SDS011;18374;51.136;3.502;2023-12-14T07:09:31;2.78;;;1.48;;
31798;SDS011;18374;51.136;3.502;2023-12-14T07:11:59;3.47;;;1.85;;
31798;SDS011;18374;51.136;3.502;2023-12-14T07:14:29;2.03;;;1.40;;
31798;SDS011;18374;51.136;3.502;2023-12-14T07:16:57;1.40;;;1.20;;
31798;SDS011;18374;51.136;3.502;2023-12-14T07:19:25;3.55;;;1.88;;
31798;SDS011;18374;51.136;3.502;2023-12-14T07:21:53;5.55;;;2.15;;
31798;SDS011;18374;51.136;3.502;2023-12-14T07:24:21;9.50;;;2.33;;
31798;SDS011;18374;51.136;3.502;2023-12-14T07:26:49;2.75;;;2.08;;
31798;SDS011;18374;51.136;3.502;2023-12-14T07:29:17;4.82;;;2.38;;
31798;SDS011;18374;51.136;3.502;2023-12-14T07:31:45;2.55;;;1.70;;
31798;SDS011;18374;51.136;3.502;2023-12-14T07:34:13;2.80;;;1.85;;
31798;SDS011;18374;51.136;3.502;2023-12-14T07:36:41;6.85;;;2.13;;
31798;SDS011;18374;51.136;3.502;2023-12-14T07:39:09;4.45;;;2.17;;
31798;SDS011;18374;51.136;3.502;2023-12-14T07:41:37;4.65;;;2.05;;
31798;SDS011;18374;51.136;3.502;2023-12-14T07:44:05;4.25;;;1.70;;
31798;SDS011;18374;51.136;3.502;2023-12-14T07:46:33;2.10;;;1.30;;
31798;SDS011;18374;51.136;3.502;2023-12-14T07:49:02;2.53;;;1.50;;
31798;SDS011;18374;51.136;3.502;2023-12-14T07:51:30;7.28;;;2.35;;
31798;SDS011;18374;51.136;3.502;2023-12-14T07:53:57;6.05;;;1.65;;
31798;SDS011;18374;51.136;3.502;2023-12-14T07:56:25;2.92;;;1.42;;
31798;SDS011;18374;51.136;3.502;2023-12-14T07:58:54;7.93;;;2.85;;
31798;SDS011;18374;51.136;3.502;2023-12-14T08:01:22;3.67;;;1.70;;
31798;SDS011;18374;51.136;3.502;2023-12-14T08:03:50;8.88;;;2.47;;
31798;SDS011;18374;51.136;3.502;2023-12-14T08:06:18;5.03;;;2.55;;
31798;SDS011;18374;51.136;3.502;2023-12-14T08:08:46;5.15;;;2.47;;
31798;SDS011;18374;51.136;3.502;2023-12-14T08:11:14;6.22;;;3.03;;
31798;SDS011;18374;51.136;3.502;2023-12-14T08:13:42;6.47;;;2.92;;
31798;SDS011;18374;51.136;3.502;2023-12-14T08:16:10;6.50;;;3.00;;
31798;SDS011;18374;51.136;3.502;2023-12-14T08:18:38;6.43;;;2.88;;
31798;SDS011;18374;51.136;3.502;2023-12-14T08:21:08;7.32;;;2.90;;
31798;SDS011;18374;51.136;3.502;2023-12-14T08:23:39;10.82;;;2.80;;
31798;SDS011;18374;51.136;3.502;2023-12-14T08:26:07;7.43;;;2.63;;
31798;SDS011;18374;51.136;3.502;2023-12-14T08:28:37;9.27;;;2.78;;
31798;SDS011;18374;51.136;3.502;2023-12-14T08:31:05;8.95;;;3.03;;
31798;SDS011;18374;51.136;3.502;2023-12-14T08:33:33;4.30;;;2.72;;
31798;SDS011;18374;51.136;3.502;2023-12-14T08:36:01;6.57;;;3.05;;
31798;SDS011;18374;51.136;3.502;2023-12-14T08:38:29;5.82;;;2.92;;
31798;SDS011;18374;51.136;3.502;2023-12-14T08:40:57;5.20;;;3.05;;
31798;SDS011;18374;51.136;3.502;2023-12-14T08:43:25;4.40;;;2.60;;
31798;SDS011;18374;51.136;3.502;2023-12-14T08:45:53;6.53;;;2.50;;
31798;SDS011;18374;51.136;3.502;2023-12-14T08:48:21;5.80;;;2.83;;
31798;SDS011;18374;51.136;3.502;2023-12-14T08:50:49;7.72;;;3.00;;
31798;SDS011;18374;51.136;3.502;2023-12-14T08:53:20;6.88;;;2.95;;
31798;SDS011;18374;51.136;3.502;2023-12-14T08:55:48;6.32;;;4.03;;
31798;SDS011;18374;51.136;3.502;2023-12-14T08:58:16;4.90;;;2.83;;
31798;SDS011;18374;51.136;3.502;2023-12-14T09:00:44;7.03;;;2.92;;
31798;SDS011;18374;51.136;3.502;2023-12-14T09:03:12;5.30;;;2.80;;
31798;SDS011;18374;51.136;3.502;2023-12-14T09:05:41;7.10;;;2.95;;
31798;SDS011;18374;51.136;3.502;2023-12-14T09:08:10;7.25;;;2.60;;
31798;SDS011;18374;51.136;3.502;2023-12-14T09:10:38;6.18;;;3.30;;
31798;SDS011;18374;51.136;3.502;2023-12-14T09:13:06;6.82;;;3.65;;
31798;SDS011;18374;51.136;3.502;2023-12-14T09:15:34;10.57;;;3.13;;
31798;SDS011;18374;51.136;3.502;2023-12-14T09:18:03;9.57;;;2.78;;
31798;SDS011;18374;51.136;3.502;2023-12-14T09:20:32;10.15;;;2.80;;
31798;SDS011;18374;51.136;3.502;2023-12-14T09:23:02;8.73;;;3.42;;
31798;SDS011;18374;51.136;3.502;2023-12-14T09:25:30;8.75;;;3.17;;
31798;SDS011;18374;51.136;3.502;2023-12-14T09:28:00;4.85;;;3.17;;
31798;SDS011;18374;51.136;3.502;2023-12-14T09:30:28;8.35;;;3.83;;
31798;SDS011;18374;51.136;3.502;2023-12-14T09:32:56;4.78;;;2.88;;
31798;SDS011;18374;51.136;3.502;2023-12-14T09:35:24;9.32;;;3.35;;
31798;SDS011;18374;51.136;3.502;2023-12-14T09:37:52;4.47;;;2.13;;
31798;SDS011;18374;51.136;3.502;2023-12-14T09:40:20;5.38;;;2.47;;
31798;SDS011;18374;51.136;3.502;2023-12-14T09:42:49;16.77;;;2.88;;
31798;SDS011;18374;51.136;3.502;2023-12-14T09:45:17;8.93;;;2.60;;
31798;SDS011;18374;51.136;3.502;2023-12-14T09:47:45;5.93;;;2.78;;
31798;SDS011;18374;51.136;3.502;2023-12-14T09:50:14;9.48;;;2.88;;
31798;SDS011;18374;51.136;3.502;2023-12-14T09:52:43;3.45;;;2.22;;
31798;SDS011;18374;51.136;3.502;2023-12-14T09:55:12;5.97;;;3.00;;
31798;SDS011;18374;51.136;3.502;2023-12-14T09:57:40;4.13;;;2.67;;
31798;SDS011;18374;51.136;3.502;2023-12-14T10:00:09;9.73;;;3.05;;
31798;SDS011;18374;51.136;3.502;2023-12-14T10:02:40;4.85;;;3.03;;
31798;SDS011;18374;51.136;3.502;2023-12-14T10:05:10;6.53;;;2.95;;
31798;SDS011;18374;51.136;3.502;2023-12-14T10:07:40;5.20;;;2.67;;
31798;SDS011;18374;51.136;3.502;2023-12-14T10:10:11;7.55;;;3.17;;
31798;SDS011;18374;51.136;3.502;2023-12-14T10:12:50;7.97;;;3.03;;
31798;SDS011;18374;51.136;3.502;2023-12-14T10:15:20;5.18;;;2.58;;
31798;SDS011;18374;51.136;3.502;2023-12-14T10:17:54;6.55;;;3.63;;
31798;SDS011;18374;51.136;3.502;2023-12-14T10:20:24;10.52;;;3.22;;
31798;SDS011;18374;51.136;3.502;2023-12-14T10:22:53;9.77;;;3.70;;
31798;SDS011;18374;51.136;3.502;2023-12-14T10:25:23;7.00;;;3.28;;
31798;SDS011;18374;51.136;3.502;2023-12-14T10:27:51;5.70;;;2.45;;
31798;SDS011;18374;51.136;3.502;2023-12-14T10:30:22;6.82;;;3.45;;
31798;SDS011;18374;51.136;3.502;2023-12-14T10:32:51;7.53;;;3.75;;
31798;SDS011;18374;51.136;3.502;2023-12-14T10:35:19;5.95;;;3.40;;
31798;SDS011;18374;51.136;3.502;2023-12-14T10:37:49;11.43;;;4.47;;
31798;SDS011;18374;51.136;3.502;2023-12-14T10:40:18;7.18;;;3.90;;
31798;SDS011;18374;51.136;3.502;2023-12-14T10:42:47;6.60;;;3.35;;
31798;SDS011;18374;51.136;3.502;2023-12-14T10:45:16;5.13;;;2.80;;
31798;SDS011;18374;51.136;3.502;2023-12-14T10:47:49;4.82;;;3.00;;
31798;SDS011;18374;51.136;3.502;2023-12-14T10:50:18;6.18;;;2.80;;
31798;SDS011;18374;51.136;3.502;2023-12-14T10:52:46;4.75;;;2.17;;
31798;SDS011;18374;51.136;3.502;2023-12-14T10:55:23;14.57;;;1.92;;
31798;SDS011;18374;51.136;3.502;2023-12-14T10:57:58;17.48;;;2.88;;
31798;SDS011;18374;51.136;3.502;2023-12-14T11:00:27;9.02;;;1.95;;
31798;SDS011;18374;51.136;3.502;2023-12-14T11:02:56;4.57;;;2.05;;
31798;SDS011;18374;51.136;3.502;2023-12-14T11:05:27;4.40;;;2.13;;
31798;SDS011;18374;51.136;3.502;2023-12-14T11:08:02;4.88;;;2.45;;
31798;SDS011;18374;51.136;3.502;2023-12-14T11:10:37;2.97;;;1.70;;
31798;SDS011;18374;51.136;3.502;2023-12-14T11:13:10;3.03;;;1.73;;
31798;SDS011;18374;51.136;3.502;2023-12-14T11:15:45;3.00;;;1.67;;
31798;SDS011;18374;51.136;3.502;2023-12-14T11:20:51;2.38;;;1.50;;
31798;SDS011;18374;51.136;3.502;2023-12-14T11:23:26;3.72;;;1.15;;
31798;SDS011;18374;51.136;3.502;2023-12-14T11:25:58;4.07;;;1.25;;
31798;SDS011;18374;51.136;3.502;2023-12-14T11:28:35;4.57;;;1.17;;
31798;SDS011;18374;51.136;3.502;2023-12-14T11:31:05;1.92;;;1.13;;
31798;SDS011;18374;51.136;3.502;2023-12-14T11:33:35;1.23;;;1.00;;
31798;SDS011;18374;51.136;3.502;2023-12-14T11:36:13;1.98;;;1.02;;
31798;SDS011;18374;51.136;3.502;2023-12-14T11:38:42;5.07;;;0.95;;
31798;SDS011;18374;51.136;3.502;2023-12-14T11:41:11;3.88;;;1.02;;
31798;SDS011;18374;51.136;3.502;2023-12-14T11:43:40;1.42;;;0.70;;
31798;SDS011;18374;51.136;3.502;2023-12-14T11:46:10;8.00;;;1.25;;
31798;SDS011;18374;51.136;3.502;2023-12-14T11:48:38;12.90;;;1.95;;
31798;SDS011;18374;51.136;3.502;2023-12-14T11:51:07;3.53;;;0.80;;
31798;SDS011;18374;51.136;3.502;2023-12-14T11:53:35;1.35;;;0.55;;
31798;SDS011;18374;51.136;3.502;2023-12-14T11:56:07;3.28;;;0.77;;
31798;SDS011;18374;51.136;3.502;2023-12-14T11:58:35;2.85;;;1.13;;
31798;SDS011;18374;51.136;3.502;2023-12-14T12:03:45;4.20;;;1.17;;
31798;SDS011;18374;51.136;3.502;2023-12-14T12:06:23;13.43;;;0.73;;
31798;SDS011;18374;51.136;3.502;2023-12-14T12:08:53;1.17;;;0.60;;
31798;SDS011;18374;51.136;3.502;2023-12-14T12:11:22;4.20;;;0.80;;
31798;SDS011;18374;51.136;3.502;2023-12-14T12:13:52;0.60;;;0.40;;
31798;SDS011;18374;51.136;3.502;2023-12-14T12:16:21;3.95;;;0.50;;
31798;SDS011;18374;51.136;3.502;2023-12-14T12:18:51;0.70;;;0.22;;
31798;SDS011;18374;51.136;3.502;2023-12-14T12:21:20;2.42;;;0.75;;
31798;SDS011;18374;51.136;3.502;2023-12-14T12:23:48;2.42;;;1.05;;
31798;SDS011;18374;51.136;3.502;2023-12-14T12:26:16;0.20;;;0.20;;
31798;SDS011;18374;51.136;3.502;2023-12-14T12:28:44;6.30;;;1.25;;
31798;SDS011;18374;51.136;3.502;2023-12-14T12:31:15;2.45;;;0.77;;
31798;SDS011;18374;51.136;3.502;2023-12-14T12:33:43;1.98;;;0.93;;
31798;SDS011;18374;51.136;3.502;2023-12-14T12:36:11;5.80;;;1.13;;
31798;SDS011;18374;51.136;3.502;2023-12-14T12:38:39;0.70;;;0.35;;
31798;SDS011;18374;51.136;3.502;2023-12-14T12:41:07;1.60;;;0.73;;
31798;SDS011;18374;51.136;3.502;2023-12-14T12:43:36;2.13;;;0.85;;
31798;SDS011;18374;51.136;3.502;2023-12-14T12:46:04;1.77;;;0.85;;
31798;SDS011;18374;51.136;3.502;2023-12-14T12:48:32;0.60;;;0.45;;
31798;SDS011;18374;51.136;3.502;2023-12-14T12:51:00;0.93;;;0.70;;
31798;SDS011;18374;51.136;3.502;2023-12-14T12:53:28;1.77;;;0.80;;
31798;SDS011;18374;51.136;3.502;2023-12-14T12:55:57;1.38;;;0.52;;
31798;SDS011;18374;51.136;3.502;2023-12-14T12:58:25;5.05;;;0.45;;
31798;SDS011;18374;51.136;3.502;2023-12-14T13:00:53;22.65;;;16.88;;
31798;SDS011;18374;51.136;3.502;2023-12-14T13:03:22;2.92;;;1.00;;
31798;SDS011;18374;51.136;3.502;2023-12-14T13:05:50;1.58;;;0.88;;
31798;SDS011;18374;51.136;3.502;2023-12-14T13:08:19;5.75;;;1.83;;
31798;SDS011;18374;51.136;3.502;2023-12-14T13:10:49;0.88;;;0.57;;
31798;SDS011;18374;51.136;3.502;2023-12-14T13:13:21;3.85;;;0.65;;
31798;SDS011;18374;51.136;3.502;2023-12-14T13:15:50;0.75;;;0.45;;
31798;SDS011;18374;51.136;3.502;2023-12-14T13:18:18;3.00;;;0.82;;
31798;SDS011;18374;51.136;3.502;2023-12-14T13:20:46;1.77;;;0.60;;
31798;SDS011;18374;51.136;3.502;2023-12-14T13:23:14;2.28;;;0.50;;
31798;SDS011;18374;51.136;3.502;2023-12-14T13:25:42;1.17;;;0.88;;
31798;SDS011;18374;51.136;3.502;2023-12-14T13:28:11;2.05;;;0.85;;
31798;SDS011;18374;51.136;3.502;2023-12-14T13:30:43;0.52;;;0.45;;
31798;SDS011;18374;51.136;3.502;2023-12-14T13:33:11;0.75;;;0.50;;
31798;SDS011;18374;51.136;3.502;2023-12-14T13:35:40;3.60;;;0.50;;
31798;SDS011;18374;51.136;3.502;2023-12-14T13:38:09;2.33;;;0.43;;
31798;SDS011;18374;51.136;3.502;2023-12-14T13:40:37;0.60;;;0.52;;
31798;SDS011;18374;51.136;3.502;2023-12-14T13:43:05;0.60;;;0.60;;
31798;SDS011;18374;51.136;3.502;2023-12-14T13:45:38;3.97;;;1.08;;
31798;SDS011;18374;51.136;3.502;2023-12-14T13:48:06;2.95;;;0.75;;
31798;SDS011;18374;51.136;3.502;2023-12-14T13:50:35;9.05;;;1.00;;
31798;SDS011;18374;51.136;3.502;2023-12-14T13:53:03;0.57;;;0.50;;
31798;SDS011;18374;51.136;3.502;2023-12-14T13:55:31;3.30;;;0.20;;
31798;SDS011;18374;51.136;3.502;2023-12-14T13:58:00;5.35;;;0.82;;
31798;SDS011;18374;51.136;3.502;2023-12-14T14:00:29;3.17;;;0.60;;
31798;SDS011;18374;51.136;3.502;2023-12-14T14:02:57;0.80;;;0.43;;
31798;SDS011;18374;51.136;3.502;2023-12-14T14:05:25;6.50;;;0.38;;
31798;SDS011;18374;51.136;3.502;2023-12-14T14:07:53;1.13;;;0.75;;
31798;SDS011;18374;51.136;3.502;2023-12-14T14:10:22;2.40;;;0.63;;
31798;SDS011;18374;51.136;3.502;2023-12-14T14:12:50;1.45;;;0.40;;
31798;SDS011;18374;51.136;3.502;2023-12-14T14:15:19;0.52;;;0.45;;
31798;SDS011;18374;51.136;3.502;2023-12-14T14:17:48;7.53;;;0.75;;
31798;SDS011;18374;51.136;3.502;2023-12-14T14:20:19;0.70;;;0.70;;
31798;SDS011;18374;51.136;3.502;2023-12-14T14:22:47;0.80;;;0.40;;
31798;SDS011;18374;51.136;3.502;2023-12-14T14:25:15;4.80;;;0.50;;
31798;SDS011;18374;51.136;3.502;2023-12-14T14:27:43;6.75;;;0.98;;
31798;SDS011;18374;51.136;3.502;2023-12-14T14:30:14;1.35;;;0.77;;
31798;SDS011;18374;51.136;3.502;2023-12-14T14:32:43;1.70;;;0.90;;
31798;SDS011;18374;51.136;3.502;2023-12-14T14:35:12;2.47;;;1.23;;
31798;SDS011;18374;51.136;3.502;2023-12-14T14:37:40;0.47;;;0.40;;
31798;SDS011;18374;51.136;3.502;2023-12-14T14:40:13;0.90;;;0.30;;
31798;SDS011;18374;51.136;3.502;2023-12-14T14:42:41;0.55;;;0.35;;
31798;SDS011;18374;51.136;3.502;2023-12-14T14:45:10;2.10;;;0.28;;
31798;SDS011;18374;51.136;3.502;2023-12-14T14:47:39;4.25;;;0.73;;
31798;SDS011;18374;51.136;3.502;2023-12-14T14:50:09;0.55;;;0.43;;
31798;SDS011;18374;51.136;3.502;2023-12-14T14:52:37;3.25;;;0.55;;
31798;SDS011;18374;51.136;3.502;2023-12-14T14:55:06;0.45;;;0.45;;
31798;SDS011;18374;51.136;3.502;2023-12-14T14:57:34;4.75;;;0.95;;
31798;SDS011;18374;51.136;3.502;2023-12-14T15:00:02;0.75;;;0.43;;